sensor_id;sensor_type;location;lat;lon;timestamp;temperature;humidity
736;DHT22;352;48.626;9.238;2023-06-05T00:00:32;17.10;73.90
736;DHT22;352;48.626;9.238;2023-06-05T00:02:58;17.10;74.20
736;DHT22;352;48.626;9.238;2023-06-05T00:05:25;17.00;74.20
736;DHT22;352;48.626;9.238;2023-06-05T00:07:53;17.00;74.60
736;DHT22;352;48.626;9.238;2023-06-05T00:10:22;16.90;74.50
736;DHT22;352;48.626;9.238;2023-06-05T00:12:57;16.90;74.50
736;DHT22;352;48.626;9.238;2023-06-05T00:15:27;16.90;75.00
736;DHT22;352;48.626;9.238;2023-06-05T00:18:39;16.80;75.30
736;DHT22;352;48.626;9.238;2023-06-05T00:21:19;16.80;76.30
736;DHT22;352;48.626;9.238;2023-06-05T00:23:46;16.80;76.10
736;DHT22;352;48.626;9.238;2023-06-05T00:26:14;16.70;75.70
736;DHT22;352;48.626;9.238;2023-06-05T00:28:41;16.70;76.20
736;DHT22;352;48.626;9.238;2023-06-05T00:31:18;16.70;76.20
736;DHT22;352;48.626;9.238;2023-06-05T00:33:47;16.60;76.10
736;DHT22;352;48.626;9.238;2023-06-05T00:36:16;16.50;76.20
736;DHT22;352;48.626;9.238;2023-06-05T00:38:44;16.50;76.30
736;DHT22;352;48.626;9.238;2023-06-05T00:41:11;16.50;76.70
736;DHT22;352;48.626;9.238;2023-06-05T00:43:39;16.50;76.70
736;DHT22;352;48.626;9.238;2023-06-05T00:46:06;16.40;77.00
736;DHT22;352;48.626;9.238;2023-06-05T00:48:34;16.40;77.90
736;DHT22;352;48.626;9.238;2023-06-05T00:51:03;16.30;76.90
736;DHT22;352;48.626;9.238;2023-06-05T00:53:32;16.20;76.70
736;DHT22;352;48.626;9.238;2023-06-05T00:56:04;16.20;77.00
736;DHT22;352;48.626;9.238;2023-06-05T00:58:31;16.20;77.40
736;DHT22;352;48.626;9.238;2023-06-05T01:01:00;16.10;77.40
736;DHT22;352;48.626;9.238;2023-06-05T01:03:29;16.00;77.40
736;DHT22;352;48.626;9.238;2023-06-05T01:05:58;16.00;78.00
736;DHT22;352;48.626;9.238;2023-06-05T01:08:30;16.00;78.70
736;DHT22;352;48.626;9.238;2023-06-05T01:11:08;15.90;78.70
736;DHT22;352;48.626;9.238;2023-06-05T01:13:39;15.90;78.90
736;DHT22;352;48.626;9.238;2023-06-05T01:16:11;15.90;79.50
736;DHT22;352;48.626;9.238;2023-06-05T01:18:38;15.90;79.60
736;DHT22;352;48.626;9.238;2023-06-05T01:21:11;15.90;79.50
736;DHT22;352;48.626;9.238;2023-06-05T01:23:41;15.80;79.70
736;DHT22;352;48.626;9.238;2023-06-05T01:26:14;15.80;80.30
736;DHT22;352;48.626;9.238;2023-06-05T01:28:47;15.80;79.90
736;DHT22;352;48.626;9.238;2023-06-05T01:31:18;15.80;79.80
736;DHT22;352;48.626;9.238;2023-06-05T01:33:51;15.80;79.40
736;DHT22;352;48.626;9.238;2023-06-05T01:36:22;15.80;79.70
736;DHT22;352;48.626;9.238;2023-06-05T01:38:51;15.80;79.40
736;DHT22;352;48.626;9.238;2023-06-05T01:41:20;15.70;78.90
736;DHT22;352;48.626;9.238;2023-06-05T01:43:47;15.70;79.70
736;DHT22;352;48.626;9.238;2023-06-05T01:46:16;15.70;79.80
736;DHT22;352;48.626;9.238;2023-06-05T01:48:43;15.60;80.20
736;DHT22;352;48.626;9.238;2023-06-05T01:51:10;15.60;80.30
736;DHT22;352;48.626;9.238;2023-06-05T01:53:37;15.60;80.20
736;DHT22;352;48.626;9.238;2023-06-05T01:56:05;15.50;80.70
736;DHT22;352;48.626;9.238;2023-06-05T01:58:34;15.50;81.10
736;DHT22;352;48.626;9.238;2023-06-05T02:01:02;15.50;81.40
736;DHT22;352;48.626;9.238;2023-06-05T02:03:30;15.40;81.50
736;DHT22;352;48.626;9.238;2023-06-05T02:05:57;15.40;81.60
736;DHT22;352;48.626;9.238;2023-06-05T02:08:24;15.40;81.80
736;DHT22;352;48.626;9.238;2023-06-05T02:10:51;15.30;81.70
736;DHT22;352;48.626;9.238;2023-06-05T02:13:19;15.30;82.10
736;DHT22;352;48.626;9.238;2023-06-05T02:15:48;15.20;82.80
736;DHT22;352;48.626;9.238;2023-06-05T02:18:20;15.30;82.60
736;DHT22;352;48.626;9.238;2023-06-05T02:20:53;15.20;83.00
736;DHT22;352;48.626;9.238;2023-06-05T02:23:20;15.20;83.30
736;DHT22;352;48.626;9.238;2023-06-05T02:25:47;15.10;83.70
736;DHT22;352;48.626;9.238;2023-06-05T02:28:13;15.10;84.00
736;DHT22;352;48.626;9.238;2023-06-05T02:30:42;15.10;84.40
736;DHT22;352;48.626;9.238;2023-06-05T02:33:10;15.00;84.50
736;DHT22;352;48.626;9.238;2023-06-05T02:35:37;15.00;84.50
736;DHT22;352;48.626;9.238;2023-06-05T02:38:06;15.00;84.50
736;DHT22;352;48.626;9.238;2023-06-05T02:40:32;15.00;84.90
736;DHT22;352;48.626;9.238;2023-06-05T02:42:59;14.90;85.50
736;DHT22;352;48.626;9.238;2023-06-05T02:45:26;14.90;86.00
736;DHT22;352;48.626;9.238;2023-06-05T02:47:54;14.90;85.50
736;DHT22;352;48.626;9.238;2023-06-05T02:50:21;14.80;85.50
736;DHT22;352;48.626;9.238;2023-06-05T02:52:48;14.80;85.90
736;DHT22;352;48.626;9.238;2023-06-05T02:55:15;14.70;86.20
736;DHT22;352;48.626;9.238;2023-06-05T02:57:42;14.60;86.30
736;DHT22;352;48.626;9.238;2023-06-05T03:00:11;14.50;86.80
736;DHT22;352;48.626;9.238;2023-06-05T03:02:41;14.40;87.50
736;DHT22;352;48.626;9.238;2023-06-05T03:05:15;14.50;87.40
736;DHT22;352;48.626;9.238;2023-06-05T03:07:42;14.50;87.70
736;DHT22;352;48.626;9.238;2023-06-05T03:10:10;14.40;88.20
736;DHT22;352;48.626;9.238;2023-06-05T03:12:37;14.40;88.20
736;DHT22;352;48.626;9.238;2023-06-05T03:15:04;14.40;88.80
736;DHT22;352;48.626;9.238;2023-06-05T03:17:31;14.30;89.00
736;DHT22;352;48.626;9.238;2023-06-05T03:19:58;14.30;89.10
736;DHT22;352;48.626;9.238;2023-06-05T03:22:26;14.20;89.30
736;DHT22;352;48.626;9.238;2023-06-05T03:24:53;14.10;89.70
736;DHT22;352;48.626;9.238;2023-06-05T03:27:19;14.10;89.80
736;DHT22;352;48.626;9.238;2023-06-05T03:29:46;14.10;90.10
736;DHT22;352;48.626;9.238;2023-06-05T03:32:13;14.00;90.00
736;DHT22;352;48.626;9.238;2023-06-05T03:34:40;14.00;90.40
736;DHT22;352;48.626;9.238;2023-06-05T03:37:08;14.00;90.60
736;DHT22;352;48.626;9.238;2023-06-05T03:39:36;14.00;90.80
736;DHT22;352;48.626;9.238;2023-06-05T03:42:04;14.00;90.60
736;DHT22;352;48.626;9.238;2023-06-05T03:44:32;14.00;91.00
736;DHT22;352;48.626;9.238;2023-06-05T03:46:59;14.00;91.00
736;DHT22;352;48.626;9.238;2023-06-05T03:49:26;14.00;90.70
736;DHT22;352;48.626;9.238;2023-06-05T03:51:54;14.00;91.10
736;DHT22;352;48.626;9.238;2023-06-05T03:54:26;13.90;91.30
736;DHT22;352;48.626;9.238;2023-06-05T03:56:54;13.90;91.10
736;DHT22;352;48.626;9.238;2023-06-05T03:59:23;13.80;91.20
736;DHT22;352;48.626;9.238;2023-06-05T04:01:51;13.90;91.40
736;DHT22;352;48.626;9.238;2023-06-05T04:04:17;13.80;91.40
736;DHT22;352;48.626;9.238;2023-06-05T04:06:44;13.80;91.40
736;DHT22;352;48.626;9.238;2023-06-05T04:09:11;13.90;91.60
736;DHT22;352;48.626;9.238;2023-06-05T04:11:39;13.90;91.80
736;DHT22;352;48.626;9.238;2023-06-05T04:14:07;13.90;92.30
736;DHT22;352;48.626;9.238;2023-06-05T04:16:34;13.90;91.90
736;DHT22;352;48.626;9.238;2023-06-05T04:19:04;13.90;91.90
736;DHT22;352;48.626;9.238;2023-06-05T04:21:31;13.90;92.10
736;DHT22;352;48.626;9.238;2023-06-05T04:23:58;13.90;92.00
736;DHT22;352;48.626;9.238;2023-06-05T04:26:25;13.90;91.50
736;DHT22;352;48.626;9.238;2023-06-05T04:28:52;14.00;91.50
736;DHT22;352;48.626;9.238;2023-06-05T04:31:22;14.00;91.60
736;DHT22;352;48.626;9.238;2023-06-05T04:33:50;14.10;91.70
736;DHT22;352;48.626;9.238;2023-06-05T04:36:17;14.20;91.60
736;DHT22;352;48.626;9.238;2023-06-05T04:38:44;14.20;91.60
736;DHT22;352;48.626;9.238;2023-06-05T04:41:12;14.20;91.50
736;DHT22;352;48.626;9.238;2023-06-05T04:43:39;14.30;91.70
736;DHT22;352;48.626;9.238;2023-06-05T04:46:05;14.20;91.80
736;DHT22;352;48.626;9.238;2023-06-05T04:48:34;14.30;91.50
736;DHT22;352;48.626;9.238;2023-06-05T04:51:02;14.30;91.90
736;DHT22;352;48.626;9.238;2023-06-05T04:53:28;14.30;92.00
736;DHT22;352;48.626;9.238;2023-06-05T04:55:56;14.40;92.00
736;DHT22;352;48.626;9.238;2023-06-05T04:58:25;14.40;92.00
736;DHT22;352;48.626;9.238;2023-06-05T05:00:52;14.50;92.10
736;DHT22;352;48.626;9.238;2023-06-05T05:03:19;14.60;92.00
736;DHT22;352;48.626;9.238;2023-06-05T05:05:47;14.60;91.80
736;DHT22;352;48.626;9.238;2023-06-05T05:08:14;14.70;92.00
736;DHT22;352;48.626;9.238;2023-06-05T05:10:41;14.80;91.90
736;DHT22;352;48.626;9.238;2023-06-05T05:13:07;14.80;92.10
736;DHT22;352;48.626;9.238;2023-06-05T05:15:34;14.90;92.00
736;DHT22;352;48.626;9.238;2023-06-05T05:18:01;15.10;91.80
736;DHT22;352;48.626;9.238;2023-06-05T05:20:29;15.30;91.10
736;DHT22;352;48.626;9.238;2023-06-05T05:22:59;15.50;91.10
736;DHT22;352;48.626;9.238;2023-06-05T05:25:26;15.60;90.50
736;DHT22;352;48.626;9.238;2023-06-05T05:27:53;15.90;90.20
736;DHT22;352;48.626;9.238;2023-06-05T05:30:20;16.30;89.80
736;DHT22;352;48.626;9.238;2023-06-05T05:32:47;16.70;88.60
736;DHT22;352;48.626;9.238;2023-06-05T05:35:14;16.90;88.10
736;DHT22;352;48.626;9.238;2023-06-05T05:37:40;17.40;85.60
736;DHT22;352;48.626;9.238;2023-06-05T05:40:10;17.90;83.90
736;DHT22;352;48.626;9.238;2023-06-05T05:42:37;18.30;81.60
736;DHT22;352;48.626;9.238;2023-06-05T05:45:04;18.70;80.10
736;DHT22;352;48.626;9.238;2023-06-05T05:47:31;19.10;78.10
736;DHT22;352;48.626;9.238;2023-06-05T05:49:58;19.50;76.50
736;DHT22;352;48.626;9.238;2023-06-05T05:52:25;19.90;75.10
736;DHT22;352;48.626;9.238;2023-06-05T05:54:51;20.30;74.30
736;DHT22;352;48.626;9.238;2023-06-05T05:57:19;20.60;73.10
736;DHT22;352;48.626;9.238;2023-06-05T05:59:46;20.90;73.10
736;DHT22;352;48.626;9.238;2023-06-05T06:02:13;21.30;71.80
736;DHT22;352;48.626;9.238;2023-06-05T06:04:40;21.50;70.00
736;DHT22;352;48.626;9.238;2023-06-05T06:07:09;21.70;69.40
736;DHT22;352;48.626;9.238;2023-06-05T06:09:36;22.00;69.70
736;DHT22;352;48.626;9.238;2023-06-05T06:12:04;22.30;68.20
736;DHT22;352;48.626;9.238;2023-06-05T06:14:33;22.60;67.00
736;DHT22;352;48.626;9.238;2023-06-05T06:17:00;22.60;68.10
736;DHT22;352;48.626;9.238;2023-06-05T06:19:27;22.90;65.70
736;DHT22;352;48.626;9.238;2023-06-05T06:21:54;23.10;65.30
736;DHT22;352;48.626;9.238;2023-06-05T06:24:21;23.10;64.00
736;DHT22;352;48.626;9.238;2023-06-05T06:26:49;23.40;63.50
736;DHT22;352;48.626;9.238;2023-06-05T06:29:18;23.70;62.90
736;DHT22;352;48.626;9.238;2023-06-05T06:31:47;23.80;61.20
736;DHT22;352;48.626;9.238;2023-06-05T06:34:14;23.80;60.40
736;DHT22;352;48.626;9.238;2023-06-05T06:36:42;23.80;61.40
736;DHT22;352;48.626;9.238;2023-06-05T06:39:09;23.60;61.20
736;DHT22;352;48.626;9.238;2023-06-05T06:41:37;23.60;62.00
736;DHT22;352;48.626;9.238;2023-06-05T06:44:04;23.60;61.00
736;DHT22;352;48.626;9.238;2023-06-05T06:46:31;23.70;61.10
736;DHT22;352;48.626;9.238;2023-06-05T06:48:59;23.90;61.40
736;DHT22;352;48.626;9.238;2023-06-05T06:51:26;24.30;60.30
736;DHT22;352;48.626;9.238;2023-06-05T06:53:53;24.50;59.80
736;DHT22;352;48.626;9.238;2023-06-05T06:56:20;24.40;59.40
736;DHT22;352;48.626;9.238;2023-06-05T06:58:46;24.60;59.20
736;DHT22;352;48.626;9.238;2023-06-05T07:01:14;25.00;59.70
736;DHT22;352;48.626;9.238;2023-06-05T07:03:41;25.40;59.20
736;DHT22;352;48.626;9.238;2023-06-05T07:06:10;25.70;58.90
736;DHT22;352;48.626;9.238;2023-06-05T07:08:37;25.90;58.60
736;DHT22;352;48.626;9.238;2023-06-05T07:11:05;26.10;58.90
736;DHT22;352;48.626;9.238;2023-06-05T07:13:32;26.00;57.50
736;DHT22;352;48.626;9.238;2023-06-05T07:15:58;25.80;57.40
736;DHT22;352;48.626;9.238;2023-06-05T07:18:25;25.80;57.10
736;DHT22;352;48.626;9.238;2023-06-05T07:20:52;26.30;57.60
736;DHT22;352;48.626;9.238;2023-06-05T07:23:20;26.50;57.10
736;DHT22;352;48.626;9.238;2023-06-05T07:25:47;26.70;57.30
736;DHT22;352;48.626;9.238;2023-06-05T07:28:14;26.90;55.60
736;DHT22;352;48.626;9.238;2023-06-05T07:30:41;27.00;54.70
736;DHT22;352;48.626;9.238;2023-06-05T07:33:09;27.10;54.30
736;DHT22;352;48.626;9.238;2023-06-05T07:35:36;27.10;53.40
736;DHT22;352;48.626;9.238;2023-06-05T07:38:03;27.40;54.20
736;DHT22;352;48.626;9.238;2023-06-05T07:40:31;27.50;53.50
736;DHT22;352;48.626;9.238;2023-06-05T07:43:01;27.30;53.60
736;DHT22;352;48.626;9.238;2023-06-05T07:45:33;27.50;53.80
736;DHT22;352;48.626;9.238;2023-06-05T07:48:00;27.40;52.30
736;DHT22;352;48.626;9.238;2023-06-05T07:50:27;27.40;53.10
736;DHT22;352;48.626;9.238;2023-06-05T07:52:57;27.80;54.90
736;DHT22;352;48.626;9.238;2023-06-05T07:55:24;27.80;53.80
736;DHT22;352;48.626;9.238;2023-06-05T07:57:54;28.10;55.10
736;DHT22;352;48.626;9.238;2023-06-05T08:00:25;28.50;54.90
736;DHT22;352;48.626;9.238;2023-06-05T08:02:52;28.70;53.20
736;DHT22;352;48.626;9.238;2023-06-05T08:05:19;28.40;53.60
736;DHT22;352;48.626;9.238;2023-06-05T08:07:46;28.40;53.10
736;DHT22;352;48.626;9.238;2023-06-05T08:10:14;28.80;54.30
736;DHT22;352;48.626;9.238;2023-06-05T08:12:41;28.90;53.70
736;DHT22;352;48.626;9.238;2023-06-05T08:15:10;28.70;53.60
736;DHT22;352;48.626;9.238;2023-06-05T08:17:36;28.80;54.40
736;DHT22;352;48.626;9.238;2023-06-05T08:20:04;28.80;55.20
736;DHT22;352;48.626;9.238;2023-06-05T08:22:32;29.00;55.00
736;DHT22;352;48.626;9.238;2023-06-05T08:24:59;28.90;55.00
736;DHT22;352;48.626;9.238;2023-06-05T08:27:26;29.30;56.10
736;DHT22;352;48.626;9.238;2023-06-05T08:29:52;29.20;54.70
736;DHT22;352;48.626;9.238;2023-06-05T08:32:20;29.30;55.40
736;DHT22;352;48.626;9.238;2023-06-05T08:34:47;29.30;56.80
736;DHT22;352;48.626;9.238;2023-06-05T08:37:14;29.80;55.10
736;DHT22;352;48.626;9.238;2023-06-05T08:39:41;29.90;56.40
736;DHT22;352;48.626;9.238;2023-06-05T08:42:09;30.00;54.40
736;DHT22;352;48.626;9.238;2023-06-05T08:44:37;30.00;55.20
736;DHT22;352;48.626;9.238;2023-06-05T08:47:04;30.00;54.50
736;DHT22;352;48.626;9.238;2023-06-05T08:49:37;30.20;54.20
736;DHT22;352;48.626;9.238;2023-06-05T08:52:07;30.20;54.20
736;DHT22;352;48.626;9.238;2023-06-05T08:54:37;30.30;55.30
736;DHT22;352;48.626;9.238;2023-06-05T08:57:06;30.60;54.90
736;DHT22;352;48.626;9.238;2023-06-05T08:59:34;30.40;54.50
736;DHT22;352;48.626;9.238;2023-06-05T09:02:01;30.20;54.80
736;DHT22;352;48.626;9.238;2023-06-05T09:04:28;30.00;54.80
736;DHT22;352;48.626;9.238;2023-06-05T09:06:58;29.70;54.90
736;DHT22;352;48.626;9.238;2023-06-05T09:09:26;29.70;55.50
736;DHT22;352;48.626;9.238;2023-06-05T09:12:03;29.90;56.20
736;DHT22;352;48.626;9.238;2023-06-05T09:14:30;29.90;56.00
736;DHT22;352;48.626;9.238;2023-06-05T09:16:58;29.80;55.30
736;DHT22;352;48.626;9.238;2023-06-05T09:19:35;30.00;55.00
736;DHT22;352;48.626;9.238;2023-06-05T09:22:05;29.80;54.50
736;DHT22;352;48.626;9.238;2023-06-05T09:24:32;29.90;55.50
736;DHT22;352;48.626;9.238;2023-06-05T09:27:01;30.20;55.10
736;DHT22;352;48.626;9.238;2023-06-05T09:29:30;30.60;55.00
736;DHT22;352;48.626;9.238;2023-06-05T09:31:59;30.80;53.70
736;DHT22;352;48.626;9.238;2023-06-05T09:34:27;31.00;53.40
736;DHT22;352;48.626;9.238;2023-06-05T09:36:56;31.30;52.30
736;DHT22;352;48.626;9.238;2023-06-05T09:39:25;31.40;52.70
736;DHT22;352;48.626;9.238;2023-06-05T09:41:53;31.90;52.50
736;DHT22;352;48.626;9.238;2023-06-05T09:44:21;32.10;52.20
736;DHT22;352;48.626;9.238;2023-06-05T09:47:02;31.80;51.00
736;DHT22;352;48.626;9.238;2023-06-05T09:49:32;32.00;52.30
736;DHT22;352;48.626;9.238;2023-06-05T09:52:00;31.80;51.70
736;DHT22;352;48.626;9.238;2023-06-05T09:54:30;31.50;52.50
736;DHT22;352;48.626;9.238;2023-06-05T09:57:00;31.10;51.30
736;DHT22;352;48.626;9.238;2023-06-05T09:59:28;30.80;51.80
736;DHT22;352;48.626;9.238;2023-06-05T10:01:59;30.70;52.10
736;DHT22;352;48.626;9.238;2023-06-05T10:05:01;30.60;52.60
736;DHT22;352;48.626;9.238;2023-06-05T10:07:43;30.60;52.70
736;DHT22;352;48.626;9.238;2023-06-05T10:10:11;29.80;52.70
736;DHT22;352;48.626;9.238;2023-06-05T10:12:41;29.50;53.00
736;DHT22;352;48.626;9.238;2023-06-05T10:15:11;29.20;54.50
736;DHT22;352;48.626;9.238;2023-06-05T10:17:38;29.30;54.40
736;DHT22;352;48.626;9.238;2023-06-05T10:20:07;29.60;55.50
736;DHT22;352;48.626;9.238;2023-06-05T10:22:35;29.90;53.10
736;DHT22;352;48.626;9.238;2023-06-05T10:25:05;30.30;53.40
736;DHT22;352;48.626;9.238;2023-06-05T10:28:03;30.60;51.60
736;DHT22;352;48.626;9.238;2023-06-05T10:33:48;31.20;50.90
736;DHT22;352;48.626;9.238;2023-06-05T10:36:33;31.30;47.70
736;DHT22;352;48.626;9.238;2023-06-05T10:39:06;31.20;47.70
736;DHT22;352;48.626;9.238;2023-06-05T10:41:33;31.20;48.90
736;DHT22;352;48.626;9.238;2023-06-05T10:44:01;31.20;49.30
736;DHT22;352;48.626;9.238;2023-06-05T10:46:29;31.10;47.60
736;DHT22;352;48.626;9.238;2023-06-05T10:49:10;31.20;50.10
736;DHT22;352;48.626;9.238;2023-06-05T10:51:39;31.30;49.90
736;DHT22;352;48.626;9.238;2023-06-05T10:54:08;30.80;49.90
736;DHT22;352;48.626;9.238;2023-06-05T10:56:58;30.40;50.40
736;DHT22;352;48.626;9.238;2023-06-05T10:59:29;30.00;50.80
736;DHT22;352;48.626;9.238;2023-06-05T11:02:23;30.20;51.00
736;DHT22;352;48.626;9.238;2023-06-05T11:05:09;30.30;49.80
736;DHT22;352;48.626;9.238;2023-06-05T11:07:39;30.20;48.80
736;DHT22;352;48.626;9.238;2023-06-05T11:10:08;30.10;49.20
736;DHT22;352;48.626;9.238;2023-06-05T11:13:08;29.70;49.10
736;DHT22;352;48.626;9.238;2023-06-05T11:15:43;29.60;49.90
736;DHT22;352;48.626;9.238;2023-06-05T11:18:32;29.40;49.70
736;DHT22;352;48.626;9.238;2023-06-05T11:21:00;29.00;51.20
736;DHT22;352;48.626;9.238;2023-06-05T11:23:27;28.90;51.70
736;DHT22;352;48.626;9.238;2023-06-05T11:25:56;29.00;52.10
736;DHT22;352;48.626;9.238;2023-06-05T11:28:39;29.20;52.00
736;DHT22;352;48.626;9.238;2023-06-05T11:31:08;29.40;51.70
736;DHT22;352;48.626;9.238;2023-06-05T11:33:35;29.60;51.10
736;DHT22;352;48.626;9.238;2023-06-05T11:36:04;29.80;50.10
736;DHT22;352;48.626;9.238;2023-06-05T11:38:33;29.80;49.80
736;DHT22;352;48.626;9.238;2023-06-05T11:41:05;29.90;49.90
736;DHT22;352;48.626;9.238;2023-06-05T11:43:35;29.90;49.40
736;DHT22;352;48.626;9.238;2023-06-05T11:46:08;29.90;48.90
736;DHT22;352;48.626;9.238;2023-06-05T11:48:42;29.80;49.30
736;DHT22;352;48.626;9.238;2023-06-05T11:51:09;29.70;49.80
736;DHT22;352;48.626;9.238;2023-06-05T11:53:44;29.70;50.30
736;DHT22;352;48.626;9.238;2023-06-05T11:56:14;29.70;47.60
736;DHT22;352;48.626;9.238;2023-06-05T11:58:42;29.60;48.40
736;DHT22;352;48.626;9.238;2023-06-05T12:01:13;29.50;48.80
736;DHT22;352;48.626;9.238;2023-06-05T12:03:43;29.50;48.80
736;DHT22;352;48.626;9.238;2023-06-05T12:06:10;29.40;49.00
736;DHT22;352;48.626;9.238;2023-06-05T12:08:39;29.30;49.50
736;DHT22;352;48.626;9.238;2023-06-05T12:11:19;29.10;49.20
736;DHT22;352;48.626;9.238;2023-06-05T12:13:49;29.10;49.00
736;DHT22;352;48.626;9.238;2023-06-05T12:16:18;28.80;49.20
736;DHT22;352;48.626;9.238;2023-06-05T12:18:45;28.60;50.50
736;DHT22;352;48.626;9.238;2023-06-05T12:21:21;28.50;49.10
736;DHT22;352;48.626;9.238;2023-06-05T12:23:49;28.50;49.60
736;DHT22;352;48.626;9.238;2023-06-05T12:26:15;28.60;49.60
736;DHT22;352;48.626;9.238;2023-06-05T12:28:44;28.60;49.00
736;DHT22;352;48.626;9.238;2023-06-05T12:31:34;28.70;49.60
736;DHT22;352;48.626;9.238;2023-06-05T12:34:02;28.70;49.80
736;DHT22;352;48.626;9.238;2023-06-05T12:36:29;28.70;48.20
736;DHT22;352;48.626;9.238;2023-06-05T12:39:02;28.60;49.00
736;DHT22;352;48.626;9.238;2023-06-05T12:41:31;28.60;48.90
736;DHT22;352;48.626;9.238;2023-06-05T12:43:59;28.40;48.20
736;DHT22;352;48.626;9.238;2023-06-05T12:46:26;28.10;47.60
736;DHT22;352;48.626;9.238;2023-06-05T12:48:54;27.90;47.60
736;DHT22;352;48.626;9.238;2023-06-05T12:51:23;28.00;48.80
736;DHT22;352;48.626;9.238;2023-06-05T12:53:50;27.90;48.40
736;DHT22;352;48.626;9.238;2023-06-05T12:56:17;28.00;49.40
736;DHT22;352;48.626;9.238;2023-06-05T12:58:43;28.20;48.30
736;DHT22;352;48.626;9.238;2023-06-05T13:01:10;28.20;46.80
736;DHT22;352;48.626;9.238;2023-06-05T13:03:37;28.00;46.40
736;DHT22;352;48.626;9.238;2023-06-05T13:06:05;27.90;47.60
736;DHT22;352;48.626;9.238;2023-06-05T13:08:32;27.90;47.90
736;DHT22;352;48.626;9.238;2023-06-05T13:10:59;27.80;46.90
736;DHT22;352;48.626;9.238;2023-06-05T13:13:26;27.80;47.60
736;DHT22;352;48.626;9.238;2023-06-05T13:15:53;27.80;46.10
736;DHT22;352;48.626;9.238;2023-06-05T13:18:20;27.80;45.60
736;DHT22;352;48.626;9.238;2023-06-05T13:20:47;27.70;46.40
736;DHT22;352;48.626;9.238;2023-06-05T13:23:15;27.70;46.70
736;DHT22;352;48.626;9.238;2023-06-05T13:25:42;27.70;48.00
736;DHT22;352;48.626;9.238;2023-06-05T13:28:09;27.70;47.90
736;DHT22;352;48.626;9.238;2023-06-05T13:30:35;27.70;48.20
736;DHT22;352;48.626;9.238;2023-06-05T13:33:02;27.50;46.70
736;DHT22;352;48.626;9.238;2023-06-05T13:35:29;27.40;47.10
736;DHT22;352;48.626;9.238;2023-06-05T13:37:55;27.30;46.80
736;DHT22;352;48.626;9.238;2023-06-05T13:40:23;27.10;46.50
736;DHT22;352;48.626;9.238;2023-06-05T13:42:52;27.00;46.90
736;DHT22;352;48.626;9.238;2023-06-05T13:45:19;27.00;47.70
736;DHT22;352;48.626;9.238;2023-06-05T13:47:46;27.00;46.50
736;DHT22;352;48.626;9.238;2023-06-05T13:50:12;27.10;48.40
736;DHT22;352;48.626;9.238;2023-06-05T13:52:39;27.10;47.10
736;DHT22;352;48.626;9.238;2023-06-05T13:55:06;27.20;47.00
736;DHT22;352;48.626;9.238;2023-06-05T13:57:35;27.30;46.20
736;DHT22;352;48.626;9.238;2023-06-05T14:00:02;27.30;48.00
736;DHT22;352;48.626;9.238;2023-06-05T14:02:29;27.30;49.10
736;DHT22;352;48.626;9.238;2023-06-05T14:04:56;27.30;48.70
736;DHT22;352;48.626;9.238;2023-06-05T14:07:23;27.20;48.30
736;DHT22;352;48.626;9.238;2023-06-05T14:09:50;27.20;48.10
736;DHT22;352;48.626;9.238;2023-06-05T14:12:16;27.20;47.90
736;DHT22;352;48.626;9.238;2023-06-05T14:14:45;27.10;46.50
736;DHT22;352;48.626;9.238;2023-06-05T14:17:11;27.10;47.20
736;DHT22;352;48.626;9.238;2023-06-05T14:19:38;27.10;47.80
736;DHT22;352;48.626;9.238;2023-06-05T14:22:05;27.20;47.40
736;DHT22;352;48.626;9.238;2023-06-05T14:24:33;27.30;49.40
736;DHT22;352;48.626;9.238;2023-06-05T14:27:00;27.40;48.20
736;DHT22;352;48.626;9.238;2023-06-05T14:29:27;27.40;47.60
736;DHT22;352;48.626;9.238;2023-06-05T14:31:55;27.40;47.50
736;DHT22;352;48.626;9.238;2023-06-05T14:34:21;27.30;47.50
736;DHT22;352;48.626;9.238;2023-06-05T14:36:48;27.30;48.70
736;DHT22;352;48.626;9.238;2023-06-05T14:39:17;27.30;47.50
736;DHT22;352;48.626;9.238;2023-06-05T14:41:45;27.30;47.80
736;DHT22;352;48.626;9.238;2023-06-05T14:44:12;27.40;48.30
736;DHT22;352;48.626;9.238;2023-06-05T14:46:38;27.40;48.40
736;DHT22;352;48.626;9.238;2023-06-05T14:49:06;27.40;46.90
736;DHT22;352;48.626;9.238;2023-06-05T14:51:33;27.40;47.30
736;DHT22;352;48.626;9.238;2023-06-05T14:54:00;27.30;47.00
736;DHT22;352;48.626;9.238;2023-06-05T14:56:26;27.20;47.40
736;DHT22;352;48.626;9.238;2023-06-05T14:58:53;27.20;48.50
736;DHT22;352;48.626;9.238;2023-06-05T15:01:20;27.20;47.40
736;DHT22;352;48.626;9.238;2023-06-05T15:03:47;27.10;47.30
736;DHT22;352;48.626;9.238;2023-06-05T15:06:15;27.10;47.40
736;DHT22;352;48.626;9.238;2023-06-05T15:08:43;27.00;47.20
736;DHT22;352;48.626;9.238;2023-06-05T15:11:09;27.00;48.50
736;DHT22;352;48.626;9.238;2023-06-05T15:13:36;27.00;48.30
736;DHT22;352;48.626;9.238;2023-06-05T15:16:03;27.00;48.90
736;DHT22;352;48.626;9.238;2023-06-05T15:18:30;26.90;49.10
736;DHT22;352;48.626;9.238;2023-06-05T15:20:56;26.80;49.70
736;DHT22;352;48.626;9.238;2023-06-05T15:23:24;26.80;48.30
736;DHT22;352;48.626;9.238;2023-06-05T15:25:51;26.80;48.70
736;DHT22;352;48.626;9.238;2023-06-05T15:28:18;26.80;48.70
736;DHT22;352;48.626;9.238;2023-06-05T15:30:45;26.80;48.70
736;DHT22;352;48.626;9.238;2023-06-05T15:33:14;26.80;49.90
736;DHT22;352;48.626;9.238;2023-06-05T15:35:41;26.80;49.20
736;DHT22;352;48.626;9.238;2023-06-05T15:38:09;26.80;49.60
736;DHT22;352;48.626;9.238;2023-06-05T15:40:37;26.80;49.20
736;DHT22;352;48.626;9.238;2023-06-05T15:43:05;26.80;48.70
736;DHT22;352;48.626;9.238;2023-06-05T15:45:33;26.80;49.50
736;DHT22;352;48.626;9.238;2023-06-05T15:48:00;26.80;47.70
736;DHT22;352;48.626;9.238;2023-06-05T15:50:28;26.70;47.90
736;DHT22;352;48.626;9.238;2023-06-05T15:52:54;26.60;48.70
736;DHT22;352;48.626;9.238;2023-06-05T15:55:22;26.60;48.40
736;DHT22;352;48.626;9.238;2023-06-05T15:57:50;26.60;49.10
736;DHT22;352;48.626;9.238;2023-06-05T16:00:18;26.60;47.10
736;DHT22;352;48.626;9.238;2023-06-05T16:02:45;26.50;48.40
736;DHT22;352;48.626;9.238;2023-06-05T16:05:12;26.50;48.10
736;DHT22;352;48.626;9.238;2023-06-05T16:07:39;26.60;49.40
736;DHT22;352;48.626;9.238;2023-06-05T16:10:11;26.70;58.40
736;DHT22;352;48.626;9.238;2023-06-05T16:12:38;26.50;51.70
736;DHT22;352;48.626;9.238;2023-06-05T16:15:07;26.30;54.70
736;DHT22;352;48.626;9.238;2023-06-05T16:17:34;26.20;53.40
736;DHT22;352;48.626;9.238;2023-06-05T16:20:01;26.10;51.10
736;DHT22;352;48.626;9.238;2023-06-05T16:22:29;25.90;53.00
736;DHT22;352;48.626;9.238;2023-06-05T16:24:56;25.70;51.00
736;DHT22;352;48.626;9.238;2023-06-05T16:27:23;25.70;52.10
736;DHT22;352;48.626;9.238;2023-06-05T16:29:50;25.60;54.30
736;DHT22;352;48.626;9.238;2023-06-05T16:32:19;25.40;51.90
736;DHT22;352;48.626;9.238;2023-06-05T16:34:46;25.40;52.00
736;DHT22;352;48.626;9.238;2023-06-05T16:37:13;25.40;52.00
736;DHT22;352;48.626;9.238;2023-06-05T16:39:40;25.40;50.90
736;DHT22;352;48.626;9.238;2023-06-05T16:42:07;25.40;49.90
736;DHT22;352;48.626;9.238;2023-06-05T16:44:33;25.50;49.90
736;DHT22;352;48.626;9.238;2023-06-05T16:47:01;25.50;50.80